sensor_id;sensor_type;location;lat;lon;timestamp;P1;durP1;ratioP1;P2;durP2;ratioP2
21315;SDS011;10817;55.820;13.030;2024-01-30T00:01:36;15.63;;;8.75;;
21315;SDS011;10817;55.820;13.030;2024-01-30T00:04:03;19.23;;;9.15;;
21315;SDS011;10817;55.820;13.030;2024-01-30T00:06:30;19.77;;;9.20;;
21315;SDS011;10817;55.820;13.030;2024-01-30T00:08:59;15.80;;;9.00;;
21315;SDS011;10817;55.820;13.030;2024-01-30T00:11:26;18.40;;;9.98;;
21315;SDS011;10817;55.820;13.030;2024-01-30T00:13:53;16.30;;;8.98;;
21315;SDS011;10817;55.820;13.030;2024-01-30T00:16:21;22.60;;;9.85;;
21315;SDS011;10817;55.820;13.030;2024-01-30T00:18:50;23.77;;;9.75;;
21315;SDS011;10817;55.820;13.030;2024-01-30T00:21:17;17.48;;;9.88;;
21315;SDS011;10817;55.820;13.030;2024-01-30T00:23:44;18.17;;;9.90;;
21315;SDS011;10817;55.820;13.030;2024-01-30T00:26:12;17.80;;;9.75;;
21315;SDS011;10817;55.820;13.030;2024-01-30T00:28:40;17.58;;;9.63;;
21315;SDS011;10817;55.820;13.030;2024-01-30T00:31:07;16.50;;;9.98;;
21315;SDS011;10817;55.820;13.030;2024-01-30T00:33:37;17.80;;;10.00;;
21315;SDS011;10817;55.820;13.030;2024-01-30T00:36:04;15.25;;;9.35;;
21315;SDS011;10817;55.820;13.030;2024-01-30T00:38:31;21.95;;;10.05;;
21315;SDS011;10817;55.820;13.030;2024-01-30T00:40:58;21.48;;;10.57;;
21315;SDS011;10817;55.820;13.030;2024-01-30T00:43:26;22.55;;;10.23;;
21315;SDS011;10817;55.820;13.030;2024-01-30T00:45:53;16.13;;;9.50;;
21315;SDS011;10817;55.820;13.030;2024-01-30T00:48:20;23.35;;;9.85;;
21315;SDS011;10817;55.820;13.030;2024-01-30T00:50:47;16.70;;;10.20;;
21315;SDS011;10817;55.820;13.030;2024-01-30T00:53:14;16.83;;;10.15;;
21315;SDS011;10817;55.820;13.030;2024-01-30T00:55:41;18.20;;;9.80;;
21315;SDS011;10817;55.820;13.030;2024-01-30T00:58:08;22.40;;;10.85;;
21315;SDS011;10817;55.820;13.030;2024-01-30T01:00:36;20.38;;;11.25;;
21315;SDS011;10817;55.820;13.030;2024-01-30T01:03:03;21.35;;;11.20;;
21315;SDS011;10817;55.820;13.030;2024-01-30T01:05:30;19.85;;;11.88;;
21315;SDS011;10817;55.820;13.030;2024-01-30T01:07:59;22.55;;;11.63;;
21315;SDS011;10817;55.820;13.030;2024-01-30T01:18:27;18.85;;;11.70;;
21315;SDS011;10817;55.820;13.030;2024-01-30T01:20:54;19.23;;;11.63;;
21315;SDS011;10817;55.820;13.030;2024-01-30T01:23:21;25.30;;;12.95;;
21315;SDS011;10817;55.820;13.030;2024-01-30T01:25:48;20.58;;;11.90;;
21315;SDS011;10817;55.820;13.030;2024-01-30T01:28:14;17.83;;;10.90;;
21315;SDS011;10817;55.820;13.030;2024-01-30T01:30:41;25.23;;;12.63;;
21315;SDS011;10817;55.820;13.030;2024-01-30T01:33:08;19.27;;;12.60;;
21315;SDS011;10817;55.820;13.030;2024-01-30T01:35:36;19.73;;;12.70;;
21315;SDS011;10817;55.820;13.030;2024-01-30T01:38:04;21.55;;;13.43;;
21315;SDS011;10817;55.820;13.030;2024-01-30T01:40:30;24.55;;;13.82;;
21315;SDS011;10817;55.820;13.030;2024-01-30T01:42:57;27.00;;;14.13;;
21315;SDS011;10817;55.820;13.030;2024-01-30T01:45:24;26.75;;;13.80;;
21315;SDS011;10817;55.820;13.030;2024-01-30T01:47:51;26.63;;;14.70;;
21315;SDS011;10817;55.820;13.030;2024-01-30T01:50:18;20.27;;;13.85;;
21315;SDS011;10817;55.820;13.030;2024-01-30T01:52:47;23.30;;;14.15;;
21315;SDS011;10817;55.820;13.030;2024-01-30T01:55:14;21.50;;;13.13;;
21315;SDS011;10817;55.820;13.030;2024-01-30T01:57:42;18.05;;;12.65;;
21315;SDS011;10817;55.820;13.030;2024-01-30T02:00:09;23.38;;;13.82;;
21315;SDS011;10817;55.820;13.030;2024-01-30T02:02:37;19.83;;;12.88;;
21315;SDS011;10817;55.820;13.030;2024-01-30T02:05:05;19.40;;;13.30;;
21315;SDS011;10817;55.820;13.030;2024-01-30T02:07:32;20.88;;;13.23;;
21315;SDS011;10817;55.820;13.030;2024-01-30T02:10:00;24.27;;;14.13;;
21315;SDS011;10817;55.820;13.030;2024-01-30T02:12:28;23.40;;;13.57;;
21315;SDS011;10817;55.820;13.030;2024-01-30T02:14:55;22.20;;;13.75;;
21315;SDS011;10817;55.820;13.030;2024-01-30T02:17:23;21.08;;;14.10;;
21315;SDS011;10817;55.820;13.030;2024-01-30T02:19:49;23.75;;;14.43;;
21315;SDS011;10817;55.820;13.030;2024-01-30T02:22:18;21.63;;;14.48;;
21315;SDS011;10817;55.820;13.030;2024-01-30T02:24:46;25.75;;;14.48;;
21315;SDS011;10817;55.820;13.030;2024-01-30T02:27:12;23.83;;;15.32;;
21315;SDS011;10817;55.820;13.030;2024-01-30T02:29:39;22.98;;;15.32;;
21315;SDS011;10817;55.820;13.030;2024-01-30T02:32:06;31.20;;;16.90;;
21315;SDS011;10817;55.820;13.030;2024-01-30T02:34:33;30.73;;;17.52;;
21315;SDS011;10817;55.820;13.030;2024-01-30T02:37:00;38.58;;;19.27;;
21315;SDS011;10817;55.820;13.030;2024-01-30T02:39:28;44.20;;;19.23;;
21315;SDS011;10817;55.820;13.030;2024-01-30T02:41:55;39.88;;;18.42;;
21315;SDS011;10817;55.820;13.030;2024-01-30T02:44:22;42.42;;;20.08;;
21315;SDS011;10817;55.820;13.030;2024-01-30T02:46:49;42.30;;;19.48;;
21315;SDS011;10817;55.820;13.030;2024-01-30T02:49:16;41.38;;;20.92;;
21315;SDS011;10817;55.820;13.030;2024-01-30T02:51:42;50.35;;;20.90;;
21315;SDS011;10817;55.820;13.030;2024-01-30T02:54:09;50.03;;;20.20;;
21315;SDS011;10817;55.820;13.030;2024-01-30T02:56:37;46.78;;;19.75;;
21315;SDS011;10817;55.820;13.030;2024-01-30T02:59:04;50.72;;;20.65;;
21315;SDS011;10817;55.820;13.030;2024-01-30T03:01:31;45.22;;;20.42;;
21315;SDS011;10817;55.820;13.030;2024-01-30T03:03:58;51.72;;;22.23;;
21315;SDS011;10817;55.820;13.030;2024-01-30T03:06:25;61.08;;;22.42;;
21315;SDS011;10817;55.820;13.030;2024-01-30T03:08:51;67.45;;;23.77;;
21315;SDS011;10817;55.820;13.030;2024-01-30T03:11:18;82.78;;;23.08;;
21315;SDS011;10817;55.820;13.030;2024-01-30T03:13:46;70.18;;;21.48;;
21315;SDS011;10817;55.820;13.030;2024-01-30T03:16:15;69.13;;;23.40;;
21315;SDS011;10817;55.820;13.030;2024-01-30T03:18:45;80.00;;;22.75;;
21315;SDS011;10817;55.820;13.030;2024-01-30T03:21:12;76.13;;;24.25;;
21315;SDS011;10817;55.820;13.030;2024-01-30T03:23:43;83.15;;;23.73;;
21315;SDS011;10817;55.820;13.030;2024-01-30T03:26:10;79.85;;;24.05;;
21315;SDS011;10817;55.820;13.030;2024-01-30T03:28:38;102.57;;;26.98;;
21315;SDS011;10817;55.820;13.030;2024-01-30T03:31:06;103.57;;;26.60;;
21315;SDS011;10817;55.820;13.030;2024-01-30T03:33:33;119.78;;;27.13;;
21315;SDS011;10817;55.820;13.030;2024-01-30T03:36:02;121.75;;;26.85;;
21315;SDS011;10817;55.820;13.030;2024-01-30T03:38:29;109.28;;;28.38;;
21315;SDS011;10817;55.820;13.030;2024-01-30T03:40:57;141.43;;;29.35;;
21315;SDS011;10817;55.820;13.030;2024-01-30T03:43:24;118.32;;;29.70;;
21315;SDS011;10817;55.820;13.030;2024-01-30T03:45:51;120.03;;;31.30;;
21315;SDS011;10817;55.820;13.030;2024-01-30T03:48:19;105.07;;;30.10;;
21315;SDS011;10817;55.820;13.030;2024-01-30T03:50:47;116.13;;;27.52;;
21315;SDS011;10817;55.820;13.030;2024-01-30T03:53:14;110.82;;;28.98;;
21315;SDS011;10817;55.820;13.030;2024-01-30T03:55:41;101.45;;;28.70;;
21315;SDS011;10817;55.820;13.030;2024-01-30T03:58:07;108.40;;;28.45;;
21315;SDS011;10817;55.820;13.030;2024-01-30T04:00:34;104.93;;;28.90;;
21315;SDS011;10817;55.820;13.030;2024-01-30T04:03:01;100.13;;;28.75;;
21315;SDS011;10817;55.820;13.030;2024-01-30T04:05:29;93.22;;;26.00;;
21315;SDS011;10817;55.820;13.030;2024-01-30T04:07:56;85.93;;;26.63;;
21315;SDS011;10817;55.820;13.030;2024-01-30T04:10:23;107.00;;;27.05;;
21315;SDS011;10817;55.820;13.030;2024-01-30T04:12:50;108.40;;;26.70;;
21315;SDS011;10817;55.820;13.030;2024-01-30T04:15:19;113.03;;;26.77;;
21315;SDS011;10817;55.820;13.030;2024-01-30T04:17:45;96.28;;;27.90;;
21315;SDS011;10817;55.820;13.030;2024-01-30T04:20:13;86.43;;;24.92;;
21315;SDS011;10817;55.820;13.030;2024-01-30T04:22:43;76.32;;;25.83;;
21315;SDS011;10817;55.820;13.030;2024-01-30T04:25:10;88.72;;;26.13;;
21315;SDS011;10817;55.820;13.030;2024-01-30T04:27:37;74.65;;;24.42;;
21315;SDS011;10817;55.820;13.030;2024-01-30T04:30:04;84.72;;;26.13;;
21315;SDS011;10817;55.820;13.030;2024-01-30T04:32:31;83.40;;;26.02;;
21315;SDS011;10817;55.820;13.030;2024-01-30T04:34:58;96.25;;;26.48;;
21315;SDS011;10817;55.820;13.030;2024-01-30T04:37:25;81.55;;;24.90;;
21315;SDS011;10817;55.820;13.030;2024-01-30T04:39:54;82.43;;;25.80;;
21315;SDS011;10817;55.820;13.030;2024-01-30T04:42:20;75.20;;;24.23;;
21315;SDS011;10817;55.820;13.030;2024-01-30T04:44:47;110.90;;;23.70;;
21315;SDS011;10817;55.820;13.030;2024-01-30T04:47:14;107.57;;;24.45;;
21315;SDS011;10817;55.820;13.030;2024-01-30T04:49:41;109.70;;;25.90;;
21315;SDS011;10817;55.820;13.030;2024-01-30T04:52:08;113.57;;;25.70;;
21315;SDS011;10817;55.820;13.030;2024-01-30T04:54:35;138.27;;;28.05;;
21315;SDS011;10817;55.820;13.030;2024-01-30T04:57:04;145.35;;;27.85;;
21315;SDS011;10817;55.820;13.030;2024-01-30T04:59:34;92.97;;;28.17;;
21315;SDS011;10817;55.820;13.030;2024-01-30T05:02:01;105.30;;;29.52;;
21315;SDS011;10817;55.820;13.030;2024-01-30T05:04:28;116.18;;;29.45;;
21315;SDS011;10817;55.820;13.030;2024-01-30T05:06:55;114.53;;;29.23;;
21315;SDS011;10817;55.820;13.030;2024-01-30T05:09:22;98.53;;;27.65;;
21315;SDS011;10817;55.820;13.030;2024-01-30T05:11:49;134.93;;;29.88;;
21315;SDS011;10817;55.820;13.030;2024-01-30T05:14:17;181.95;;;29.92;;
21315;SDS011;10817;55.820;13.030;2024-01-30T05:16:44;132.65;;;28.85;;
21315;SDS011;10817;55.820;13.030;2024-01-30T05:19:12;156.07;;;27.58;;
21315;SDS011;10817;55.820;13.030;2024-01-30T05:21:39;116.63;;;29.58;;
21315;SDS011;10817;55.820;13.030;2024-01-30T05:24:06;100.25;;;27.73;;
21315;SDS011;10817;55.820;13.030;2024-01-30T05:26:34;156.68;;;29.27;;
21315;SDS011;10817;55.820;13.030;2024-01-30T05:29:01;101.80;;;26.13;;
21315;SDS011;10817;55.820;13.030;2024-01-30T05:31:29;141.85;;;28.45;;
21315;SDS011;10817;55.820;13.030;2024-01-30T05:33:56;139.52;;;29.75;;
21315;SDS011;10817;55.820;13.030;2024-01-30T05:36:23;133.50;;;29.10;;
21315;SDS011;10817;55.820;13.030;2024-01-30T05:38:50;102.03;;;28.23;;
21315;SDS011;10817;55.820;13.030;2024-01-30T05:41:17;95.50;;;28.00;;
21315;SDS011;10817;55.820;13.030;2024-01-30T05:43:44;129.57;;;29.13;;
21315;SDS011;10817;55.820;13.030;2024-01-30T05:46:10;101.63;;;27.33;;
21315;SDS011;10817;55.820;13.030;2024-01-30T05:48:38;127.85;;;27.77;;
21315;SDS011;10817;55.820;13.030;2024-01-30T05:51:06;103.25;;;30.00;;
21315;SDS011;10817;55.820;13.030;2024-01-30T05:53:33;92.90;;;28.92;;
21315;SDS011;10817;55.820;13.030;2024-01-30T05:56:01;88.28;;;28.52;;
21315;SDS011;10817;55.820;13.030;2024-01-30T05:58:28;92.00;;;28.00;;
21315;SDS011;10817;55.820;13.030;2024-01-30T06:00:56;80.72;;;29.60;;
21315;SDS011;10817;55.820;13.030;2024-01-30T06:03:23;104.28;;;29.08;;
21315;SDS011;10817;55.820;13.030;2024-01-30T06:05:51;103.60;;;29.65;;
21315;SDS011;10817;55.820;13.030;2024-01-30T06:08:18;89.85;;;29.75;;
21315;SDS011;10817;55.820;13.030;2024-01-30T06:10:44;104.30;;;30.45;;
21315;SDS011;10817;55.820;13.030;2024-01-30T06:13:12;107.20;;;29.02;;
21315;SDS011;10817;55.820;13.030;2024-01-30T06:15:39;87.43;;;29.15;;
21315;SDS011;10817;55.820;13.030;2024-01-30T06:18:06;95.15;;;29.77;;
21315;SDS011;10817;55.820;13.030;2024-01-30T06:20:33;94.43;;;28.20;;
21315;SDS011;10817;55.820;13.030;2024-01-30T06:23:02;104.93;;;30.58;;
21315;SDS011;10817;55.820;13.030;2024-01-30T06:25:28;90.85;;;29.58;;
21315;SDS011;10817;55.820;13.030;2024-01-30T06:27:55;108.50;;;29.23;;
21315;SDS011;10817;55.820;13.030;2024-01-30T06:30:22;92.25;;;29.55;;
21315;SDS011;10817;55.820;13.030;2024-01-30T06:32:49;107.90;;;30.05;;
21315;SDS011;10817;55.820;13.030;2024-01-30T06:35:16;86.55;;;27.30;;
21315;SDS011;10817;55.820;13.030;2024-01-30T06:37:43;80.00;;;25.42;;
21315;SDS011;10817;55.820;13.030;2024-01-30T06:40:12;83.80;;;25.45;;
21315;SDS011;10817;55.820;13.030;2024-01-30T06:42:38;121.00;;;25.35;;
21315;SDS011;10817;55.820;13.030;2024-01-30T06:45:06;88.22;;;24.33;;
21315;SDS011;10817;55.820;13.030;2024-01-30T06:47:34;89.45;;;25.45;;
21315;SDS011;10817;55.820;13.030;2024-01-30T06:50:00;92.28;;;26.42;;
21315;SDS011;10817;55.820;13.030;2024-01-30T06:52:28;142.45;;;24.42;;
21315;SDS011;10817;55.820;13.030;2024-01-30T06:54:55;113.72;;;25.80;;
21315;SDS011;10817;55.820;13.030;2024-01-30T06:57:23;87.65;;;26.73;;
21315;SDS011;10817;55.820;13.030;2024-01-30T06:59:51;148.65;;;26.85;;
21315;SDS011;10817;55.820;13.030;2024-01-30T07:02:17;111.38;;;25.63;;
21315;SDS011;10817;55.820;13.030;2024-01-30T07:04:44;99.50;;;25.17;;
21315;SDS011;10817;55.820;13.030;2024-01-30T07:07:11;148.55;;;25.48;;
21315;SDS011;10817;55.820;13.030;2024-01-30T07:09:39;140.65;;;24.42;;
21315;SDS011;10817;55.820;13.030;2024-01-30T07:12:07;147.27;;;26.27;;
21315;SDS011;10817;55.820;13.030;2024-01-30T07:14:35;174.20;;;27.00;;
21315;SDS011;10817;55.820;13.030;2024-01-30T07:17:03;147.43;;;25.00;;
21315;SDS011;10817;55.820;13.030;2024-01-30T07:19:30;125.80;;;26.42;;
21315;SDS011;10817;55.820;13.030;2024-01-30T07:21:57;84.60;;;24.38;;
21315;SDS011;10817;55.820;13.030;2024-01-30T07:24:23;133.20;;;24.58;;
21315;SDS011;10817;55.820;13.030;2024-01-30T07:26:50;97.50;;;24.70;;
21315;SDS011;10817;55.820;13.030;2024-01-30T07:29:17;97.65;;;24.73;;
21315;SDS011;10817;55.820;13.030;2024-01-30T07:31:45;158.90;;;25.35;;
21315;SDS011;10817;55.820;13.030;2024-01-30T07:34:12;85.05;;;24.98;;
21315;SDS011;10817;55.820;13.030;2024-01-30T07:36:39;86.10;;;24.13;;
21315;SDS011;10817;55.820;13.030;2024-01-30T07:39:06;113.00;;;24.08;;
21315;SDS011;10817;55.820;13.030;2024-01-30T07:41:32;121.80;;;22.30;;
21315;SDS011;10817;55.820;13.030;2024-01-30T07:43:59;124.28;;;23.77;;
21315;SDS011;10817;55.820;13.030;2024-01-30T07:46:26;131.73;;;22.48;;
21315;SDS011;10817;55.820;13.030;2024-01-30T07:48:54;102.22;;;23.52;;
21315;SDS011;10817;55.820;13.030;2024-01-30T07:51:22;136.25;;;23.38;;
21315;SDS011;10817;55.820;13.030;2024-01-30T07:53:48;100.53;;;21.25;;
21315;SDS011;10817;55.820;13.030;2024-01-30T07:56:15;202.48;;;23.95;;
21315;SDS011;10817;55.820;13.030;2024-01-30T07:58:42;129.48;;;23.85;;
21315;SDS011;10817;55.820;13.030;2024-01-30T08:01:09;170.82;;;22.80;;
21315;SDS011;10817;55.820;13.030;2024-01-30T08:03:36;159.82;;;22.55;;
21315;SDS011;10817;55.820;13.030;2024-01-30T08:06:06;154.30;;;23.33;;
21315;SDS011;10817;55.820;13.030;2024-01-30T08:08:33;134.43;;;23.25;;
21315;SDS011;10817;55.820;13.030;2024-01-30T08:11:00;104.55;;;23.55;;
21315;SDS011;10817;55.820;13.030;2024-01-30T08:13:27;124.80;;;22.45;;
21315;SDS011;10817;55.820;13.030;2024-01-30T08:15:53;136.98;;;24.42;;
21315;SDS011;10817;55.820;13.030;2024-01-30T08:18:20;184.68;;;24.00;;
21315;SDS011;10817;55.820;13.030;2024-01-30T08:20:47;180.18;;;22.45;;
21315;SDS011;10817;55.820;13.030;2024-01-30T08:23:15;220.60;;;22.65;;
21315;SDS011;10817;55.820;13.030;2024-01-30T08:25:42;304.50;;;23.45;;
21315;SDS011;10817;55.820;13.030;2024-01-30T08:28:09;147.70;;;21.85;;
21315;SDS011;10817;55.820;13.030;2024-01-30T08:30:36;247.10;;;22.38;;
21315;SDS011;10817;55.820;13.030;2024-01-30T08:33:04;144.30;;;23.60;;
21315;SDS011;10817;55.820;13.030;2024-01-30T08:35:31;177.18;;;22.42;;
21315;SDS011;10817;55.820;13.030;2024-01-30T08:37:58;153.10;;;21.42;;
21315;SDS011;10817;55.820;13.030;2024-01-30T08:40:26;173.68;;;23.60;;
21315;SDS011;10817;55.820;13.030;2024-01-30T08:42:53;189.07;;;22.67;;
21315;SDS011;10817;55.820;13.030;2024-01-30T08:45:20;196.98;;;23.30;;
21315;SDS011;10817;55.820;13.030;2024-01-30T08:47:47;139.32;;;23.33;;
21315;SDS011;10817;55.820;13.030;2024-01-30T08:50:14;175.35;;;21.90;;
21315;SDS011;10817;55.820;13.030;2024-01-30T08:52:41;201.65;;;24.83;;
21315;SDS011;10817;55.820;13.030;2024-01-30T08:55:08;190.35;;;24.33;;
21315;SDS011;10817;55.820;13.030;2024-01-30T08:57:36;139.85;;;24.02;;
21315;SDS011;10817;55.820;13.030;2024-01-30T09:00:03;196.93;;;23.77;;
21315;SDS011;10817;55.820;13.030;2024-01-30T09:02:34;165.40;;;25.00;;
21315;SDS011;10817;55.820;13.030;2024-01-30T09:05:00;159.45;;;23.95;;
21315;SDS011;10817;55.820;13.030;2024-01-30T09:07:28;184.75;;;24.27;;
21315;SDS011;10817;55.820;13.030;2024-01-30T09:09:54;154.55;;;24.55;;
21315;SDS011;10817;55.820;13.030;2024-01-30T09:12:21;175.68;;;25.17;;
21315;SDS011;10817;55.820;13.030;2024-01-30T09:14:49;192.45;;;24.30;;
21315;SDS011;10817;55.820;13.030;2024-01-30T09:17:16;143.98;;;24.63;;
21315;SDS011;10817;55.820;13.030;2024-01-30T09:19:43;199.85;;;26.15;;
21315;SDS011;10817;55.820;13.030;2024-01-30T09:22:10;164.68;;;22.90;;
21315;SDS011;10817;55.820;13.030;2024-01-30T09:24:36;199.90;;;24.05;;
21315;SDS011;10817;55.820;13.030;2024-01-30T09:27:03;174.18;;;23.17;;
21315;SDS011;10817;55.820;13.030;2024-01-30T09:29:31;162.98;;;23.90;;
21315;SDS011;10817;55.820;13.030;2024-01-30T09:32:00;204.75;;;22.92;;
21315;SDS011;10817;55.820;13.030;2024-01-30T09:34:27;181.88;;;24.00;;
21315;SDS011;10817;55.820;13.030;2024-01-30T09:36:54;164.73;;;22.42;;
21315;SDS011;10817;55.820;13.030;2024-01-30T09:39:20;134.60;;;23.17;;
21315;SDS011;10817;55.820;13.030;2024-01-30T09:41:48;149.15;;;22.67;;
21315;SDS011;10817;55.820;13.030;2024-01-30T09:44:21;133.75;;;21.70;;
21315;SDS011;10817;55.820;13.030;2024-01-30T09:46:50;128.63;;;22.33;;
21315;SDS011;10817;55.820;13.030;2024-01-30T09:49:19;173.73;;;21.45;;
21315;SDS011;10817;55.820;13.030;2024-01-30T09:51:47;137.90;;;22.27;;
21315;SDS011;10817;55.820;13.030;2024-01-30T09:54:15;113.85;;;21.17;;
21315;SDS011;10817;55.820;13.030;2024-01-30T09:56:42;131.75;;;21.55;;
21315;SDS011;10817;55.820;13.030;2024-01-30T09:59:09;117.32;;;22.15;;
21315;SDS011;10817;55.820;13.030;2024-01-30T10:01:36;151.77;;;20.95;;
21315;SDS011;10817;55.820;13.030;2024-01-30T10:04:04;114.28;;;22.52;;
21315;SDS011;10817;55.820;13.030;2024-01-30T10:06:33;119.88;;;23.48;;
21315;SDS011;10817;55.820;13.030;2024-01-30T10:09:01;147.13;;;26.30;;
21315;SDS011;10817;55.820;13.030;2024-01-30T10:11:28;131.15;;;22.50;;
21315;SDS011;10817;55.820;13.030;2024-01-30T10:13:55;110.25;;;20.17;;
21315;SDS011;10817;55.820;13.030;2024-01-30T10:16:21;99.32;;;18.67;;
21315;SDS011;10817;55.820;13.030;2024-01-30T10:18:48;100.50;;;19.52;;
21315;SDS011;10817;55.820;13.030;2024-01-30T10:21:16;101.40;;;20.25;;
21315;SDS011;10817;55.820;13.030;2024-01-30T10:23:44;100.97;;;18.20;;
21315;SDS011;10817;55.820;13.030;2024-01-30T10:26:11;89.10;;;17.60;;
21315;SDS011;10817;55.820;13.030;2024-01-30T10:28:38;95.75;;;17.60;;
21315;SDS011;10817;55.820;13.030;2024-01-30T10:31:04;89.28;;;18.15;;
21315;SDS011;10817;55.820;13.030;2024-01-30T10:33:31;94.22;;;17.27;;
21315;SDS011;10817;55.820;13.030;2024-01-30T10:36:00;109.63;;;18.20;;
21315;SDS011;10817;55.820;13.030;2024-01-30T10:38:28;126.68;;;20.23;;
21315;SDS011;10817;55.820;13.030;2024-01-30T10:40:58;97.95;;;17.50;;
21315;SDS011;10817;55.820;13.030;2024-01-30T10:43:29;80.93;;;16.60;;
21315;SDS011;10817;55.820;13.030;2024-01-30T10:45:59;76.72;;;16.45;;
21315;SDS011;10817;55.820;13.030;2024-01-30T10:48:32;86.60;;;15.85;;
21315;SDS011;10817;55.820;13.030;2024-01-30T10:51:05;61.33;;;14.32;;
21315;SDS011;10817;55.820;13.030;2024-01-30T10:53:32;38.53;;;11.98;;
21315;SDS011;10817;55.820;13.030;2024-01-30T10:56:01;41.83;;;11.57;;
21315;SDS011;10817;55.820;13.030;2024-01-30T10:58:29;40.42;;;12.20;;
21315;SDS011;10817;55.820;13.030;2024-01-30T11:00:56;46.30;;;13.85;;
21315;SDS011;10817;55.820;13.030;2024-01-30T11:03:24;51.33;;;13.30;;
21315;SDS011;10817;55.820;13.030;2024-01-30T11:05:51;40.70;;;13.13;;
21315;SDS011;10817;55.820;13.030;2024-01-30T11:08:25;55.75;;;15.50;;
21315;SDS011;10817;55.820;13.030;2024-01-30T11:10:55;58.85;;;15.65;;
21315;SDS011;10817;55.820;13.030;2024-01-30T11:13:24;53.92;;;16.42;;
21315;SDS011;10817;55.820;13.030;2024-01-30T11:15:54;64.30;;;16.13;;
21315;SDS011;10817;55.820;13.030;2024-01-30T11:18:23;58.85;;;17.83;;
21315;SDS011;10817;55.820;13.030;2024-01-30T11:20:51;71.40;;;17.83;;
21315;SDS011;10817;55.820;13.030;2024-01-30T11:23:18;62.83;;;17.02;;
21315;SDS011;10817;55.820;13.030;2024-01-30T11:25:48;70.22;;;16.58;;
21315;SDS011;10817;55.820;13.030;2024-01-30T11:28:15;78.43;;;16.52;;
21315;SDS011;10817;55.820;13.030;2024-01-30T11:30:43;90.60;;;15.23;;
21315;SDS011;10817;55.820;13.030;2024-01-30T11:33:13;103.45;;;17.67;;
21315;SDS011;10817;55.820;13.030;2024-01-30T11:35:42;87.57;;;18.40;;
21315;SDS011;10817;55.820;13.030;2024-01-30T11:38:09;87.72;;;20.23;;
21315;SDS011;10817;55.820;13.030;2024-01-30T11:40:37;76.93;;;18.38;;
21315;SDS011;10817;55.820;13.030;2024-01-30T11:43:05;90.28;;;20.27;;
21315;SDS011;10817;55.820;13.030;2024-01-30T11:45:34;102.78;;;20.00;;
21315;SDS011;10817;55.820;13.030;2024-01-30T11:48:03;108.32;;;21.45;;
21315;SDS011;10817;55.820;13.030;2024-01-30T11:50:31;102.93;;;19.23;;
21315;SDS011;10817;55.820;13.030;2024-01-30T11:52:59;79.35;;;20.33;;
21315;SDS011;10817;55.820;13.030;2024-01-30T11:55:29;102.53;;;20.42;;
21315;SDS011;10817;55.820;13.030;2024-01-30T11:57:56;85.93;;;19.55;;
21315;SDS011;10817;55.820;13.030;2024-01-30T12:00:26;77.50;;;19.70;;
21315;SDS011;10817;55.820;13.030;2024-01-30T12:02:55;65.45;;;19.10;;
21315;SDS011;10817;55.820;13.030;2024-01-30T12:05:23;105.55;;;21.10;;
21315;SDS011;10817;55.820;13.030;2024-01-30T12:07:51;77.47;;;18.40;;
21315;SDS011;10817;55.820;13.030;2024-01-30T12:10:18;81.80;;;19.27;;
21315;SDS011;10817;55.820;13.030;2024-01-30T12:12:48;86.10;;;20.30;;
21315;SDS011;10817;55.820;13.030;2024-01-30T12:15:16;76.30;;;20.38;;
21315;SDS011;10817;55.820;13.030;2024-01-30T12:17:47;78.82;;;20.05;;
21315;SDS011;10817;55.820;13.030;2024-01-30T12:20:14;82.22;;;21.05;;
21315;SDS011;10817;55.820;13.030;2024-01-30T12:22:46;80.93;;;20.83;;
21315;SDS011;10817;55.820;13.030;2024-01-30T12:25:14;68.47;;;19.08;;
21315;SDS011;10817;55.820;13.030;2024-01-30T12:27:42;94.80;;;19.73;;
21315;SDS011;10817;55.820;13.030;2024-01-30T12:30:11;99.45;;;18.80;;
21315;SDS011;10817;55.820;13.030;2024-01-30T12:32:39;73.47;;;18.17;;
21315;SDS011;10817;55.820;13.030;2024-01-30T12:35:08;81.15;;;18.52;;
21315;SDS011;10817;55.820;13.030;2024-01-30T12:37:36;81.97;;;18.33;;
21315;SDS011;10817;55.820;13.030;2024-01-30T12:40:05;69.45;;;18.50;;
21315;SDS011;10817;55.820;13.030;2024-01-30T12:42:34;65.20;;;18.95;;
21315;SDS011;10817;55.820;13.030;2024-01-30T12:45:01;60.58;;;20.10;;
21315;SDS011;10817;55.820;13.030;2024-01-30T12:47:29;75.38;;;19.42;;
21315;SDS011;10817;55.820;13.030;2024-01-30T12:49:56;64.03;;;19.27;;
21315;SDS011;10817;55.820;13.030;2024-01-30T12:52:23;57.38;;;19.50;;
21315;SDS011;10817;55.820;13.030;2024-01-30T12:54:50;55.45;;;19.42;;
21315;SDS011;10817;55.820;13.030;2024-01-30T12:57:18;54.88;;;18.23;;
21315;SDS011;10817;55.820;13.030;2024-01-30T12:59:45;61.97;;;17.27;;
21315;SDS011;10817;55.820;13.030;2024-01-30T13:02:13;47.30;;;15.32;;
21315;SDS011;10817;55.820;13.030;2024-01-30T13:04:43;45.92;;;15.68;;
21315;SDS011;10817;55.820;13.030;2024-01-30T13:07:10;44.10;;;14.98;;
21315;SDS011;10817;55.820;13.030;2024-01-30T13:09:37;44.40;;;15.98;;
21315;SDS011;10817;55.820;13.030;2024-01-30T13:12:04;44.83;;;16.05;;
21315;SDS011;10817;55.820;13.030;2024-01-30T13:14:33;47.85;;;16.60;;
21315;SDS011;10817;55.820;13.030;2024-01-30T13:17:00;53.10;;;17.48;;
21315;SDS011;10817;55.820;13.030;2024-01-30T13:19:27;46.95;;;16.40;;
21315;SDS011;10817;55.820;13.030;2024-01-30T13:21:54;46.33;;;17.25;;
21315;SDS011;10817;55.820;13.030;2024-01-30T13:24:21;50.30;;;18.00;;
21315;SDS011;10817;55.820;13.030;2024-01-30T13:26:47;46.97;;;18.25;;
21315;SDS011;10817;55.820;13.030;2024-01-30T13:29:14;50.78;;;19.48;;
21315;SDS011;10817;55.820;13.030;2024-01-30T13:31:42;50.25;;;19.13;;
21315;SDS011;10817;55.820;13.030;2024-01-30T13:34:11;51.38;;;19.63;;
21315;SDS011;10817;55.820;13.030;2024-01-30T13:36:38;49.50;;;19.17;;
21315;SDS011;10817;55.820;13.030;2024-01-30T13:39:05;54.08;;;19.88;;
21315;SDS011;10817;55.820;13.030;2024-01-30T13:41:35;58.10;;;21.10;;
21315;SDS011;10817;55.820;13.030;2024-01-30T13:44:02;54.22;;;20.38;;
21315;SDS011;10817;55.820;13.030;2024-01-30T13:46:29;56.47;;;20.50;;
21315;SDS011;10817;55.820;13.030;2024-01-30T13:48:58;52.15;;;19.58;;
21315;SDS011;10817;55.820;13.030;2024-01-30T13:51:24;49.83;;;20.50;;
21315;SDS011;10817;55.820;13.030;2024-01-30T13:53:51;46.00;;;18.90;;
21315;SDS011;10817;55.820;13.030;2024-01-30T13:56:18;51.00;;;19.85;;
21315;SDS011;10817;55.820;13.030;2024-01-30T13:58:45;45.13;;;19.42;;
21315;SDS011;10817;55.820;13.030;2024-01-30T14:01:12;47.40;;;19.80;;
21315;SDS011;10817;55.820;13.030;2024-01-30T14:03:39;45.95;;;19.48;;
21315;SDS011;10817;55.820;13.030;2024-01-30T14:06:07;47.08;;;19.58;;
21315;SDS011;10817;55.820;13.030;2024-01-30T14:08:34;45.33;;;18.75;;
21315;SDS011;10817;55.820;13.030;2024-01-30T14:11:00;46.33;;;19.27;;
21315;SDS011;10817;55.820;13.030;2024-01-30T14:13:28;48.67;;;19.63;;